createdAt,value
2022-09-10T00:00:23.772Z,0.80
2022-09-10T00:03:25.473Z,0.50
2022-09-10T00:06:28.082Z,0.60
2022-09-10T00:09:29.593Z,0.40
2022-09-10T00:12:31.605Z,0.45
2022-09-10T00:15:41.152Z,0.40
2022-09-10T00:18:43.056Z,0.40
2022-09-10T00:21:45.120Z,0.55
2022-09-10T00:24:46.585Z,0.40
2022-09-10T00:27:48.059Z,0.40
2022-09-10T00:30:52.019Z,0.57
2022-09-10T00:33:54.745Z,0.50
2022-09-10T00:36:56.304Z,0.40
2022-09-10T00:39:58.032Z,0.63
2022-09-10T00:43:00.016Z,0.50
2022-09-10T00:46:01.732Z,0.60
2022-09-10T00:49:13.326Z,0.50
2022-09-10T00:52:15.014Z,0.60
2022-09-10T00:55:17.542Z,0.40
2022-09-10T00:58:20.945Z,0.52
2022-09-10T01:01:23.133Z,0.50
2022-09-10T01:04:24.597Z,0.45
2022-09-10T01:07:29.161Z,0.82
2022-09-10T01:10:58.311Z,0.50
2022-09-10T08:49:22.125Z,0.90
2022-09-10T08:52:31.107Z,1.20
2022-09-10T08:55:40.998Z,1.00
2022-09-10T08:58:56.090Z,0.93
2022-09-10T09:02:02.836Z,1.00
2022-09-10T09:05:17.828Z,1.00
2022-09-10T09:08:25.307Z,1.02
2022-09-10T09:11:58.409Z,1.40
2022-09-10T09:15:18.167Z,1.17
2022-09-10T09:18:22.744Z,1.05
2022-09-10T09:21:32.984Z,0.90
2022-09-10T09:24:40.366Z,1.00
2022-09-10T09:27:42.263Z,1.17
2022-09-10T09:30:49.564Z,1.00
2022-09-10T09:33:58.797Z,1.10
2022-09-10T09:37:04.423Z,1.35
2022-09-10T09:40:15.813Z,1.10
2022-09-10T09:43:46.492Z,1.00
2022-09-10T09:46:49.302Z,0.80
2022-09-10T12:17:39.279Z,1.35
2022-09-10T12:20:48.654Z,2.10
2022-09-10T12:23:50.329Z,1.40
2022-09-10T12:26:53.477Z,1.75
2022-09-10T12:29:54.959Z,1.70
2022-09-10T12:33:02.235Z,1.70
2022-09-10T12:36:03.967Z,1.70
2022-09-10T12:39:25.923Z,1.60
2022-09-10T12:42:33.317Z,1.40
2022-09-10T12:46:08.828Z,1.40
2022-09-10T12:49:12.940Z,1.52
2022-09-10T12:52:48.971Z,1.80
2022-09-10T12:55:50.744Z,1.52
2022-09-10T12:59:06.837Z,1.48
2022-09-10T13:02:28.525Z,1.50
2022-09-10T13:05:30.033Z,1.50
2022-09-10T13:08:41.463Z,1.73
2022-09-10T13:11:46.951Z,1.65
2022-09-10T13:14:53.748Z,1.60
2022-09-10T13:17:55.200Z,1.60
2022-09-10T13:20:58.513Z,1.45
2022-09-10T13:23:59.974Z,1.30
2022-09-10T13:27:16.372Z,1.63
2022-09-10T13:30:20.267Z,1.40
2022-09-10T13:33:25.702Z,1.50
2022-09-10T13:36:32.493Z,1.48
2022-09-10T13:39:57.271Z,1.33
2022-09-10T13:43:13.799Z,1.40
2022-09-10T13:46:43.074Z,1.50
2022-09-10T13:49:55.562Z,1.75
2022-09-10T13:53:00.285Z,1.63
2022-09-10T13:56:12.329Z,1.40
2022-09-10T13:59:22.941Z,1.60
2022-09-10T14:02:41.483Z,1.50
2022-09-10T14:05:55.858Z,1.45
2022-09-10T14:09:03.089Z,1.60
2022-09-10T14:12:08.345Z,1.60
2022-09-10T14:15:19.994Z,1.27
2022-09-10T14:18:23.797Z,1.50
2022-09-10T14:21:27.449Z,1.70
2022-09-10T14:24:39.478Z,1.60
2022-09-10T14:27:42.104Z,1.42
2022-09-10T14:30:45.099Z,1.10
2022-09-10T14:33:46.731Z,1.33
2022-09-10T14:36:48.271Z,1.45
2022-09-10T14:39:49.792Z,1.40
2022-09-10T14:42:51.307Z,1.40
2022-09-10T14:45:53.433Z,1.50
2022-09-10T14:49:02.509Z,1.35
2022-09-10T14:52:05.857Z,1.70
2022-09-10T14:55:07.621Z,1.70
2022-09-10T14:58:11.493Z,1.73
2022-09-10T15:01:12.997Z,2.08
2022-09-10T15:04:17.241Z,1.85
2022-09-10T15:07:19.097Z,1.80
2022-09-10T15:10:20.583Z,1.65
2022-09-10T15:13:22.058Z,1.60
2022-09-10T15:16:23.526Z,1.70
2022-09-10T15:19:25.223Z,1.98
2022-09-10T15:22:31.671Z,1.92
2022-09-10T15:25:40.513Z,1.98
2022-09-10T15:28:42.326Z,1.90
2022-09-10T15:31:44.465Z,1.63
2022-09-10T15:34:45.949Z,2.20
2022-09-10T15:37:47.437Z,1.77
2022-09-10T15:40:50.079Z,1.90
2022-09-10T15:43:51.574Z,1.92
2022-09-10T15:46:53.126Z,1.85
2022-09-10T15:49:54.673Z,2.00
2022-09-10T15:52:56.129Z,1.80
2022-09-10T15:55:59.932Z,2.33
2022-09-10T15:59:01.763Z,1.98
2022-09-10T16:02:03.313Z,2.03
2022-09-10T16:05:05.952Z,1.80
2022-09-10T16:08:07.691Z,1.67
2022-09-10T16:11:13.986Z,1.80
2022-09-10T16:14:16.684Z,1.77
2022-09-10T16:17:18.177Z,1.85
2022-09-10T16:20:20.457Z,1.90
2022-09-10T16:23:23.129Z,1.92
2022-09-10T16:26:28.192Z,1.92
2022-09-10T16:29:29.697Z,1.90
2022-09-10T16:32:31.280Z,2.08
2022-09-10T16:35:34.936Z,1.90
2022-09-10T16:38:37.036Z,2.40
2022-09-10T16:41:40.521Z,2.08
2022-09-10T16:44:42.005Z,2.08
2022-09-10T16:47:43.568Z,1.90
2022-09-10T16:50:45.086Z,1.90
2022-09-10T16:53:55.517Z,2.00
2022-09-10T16:59:58.604Z,1.92
2022-09-10T17:03:00.114Z,1.95
2022-09-10T17:06:01.730Z,1.77
2022-09-10T17:09:03.947Z,1.70
2022-09-10T17:12:05.707Z,2.00
2022-09-10T17:15:07.668Z,2.42
2022-09-10T17:18:11.881Z,2.00
2022-09-10T17:21:14.389Z,2.20
2022-09-10T17:24:15.861Z,2.10
2022-09-10T17:27:17.335Z,2.50
2022-09-10T17:30:19.350Z,2.42
2022-09-10T17:33:23.474Z,2.42
2022-09-10T17:36:28.163Z,2.55
2022-09-10T17:39:29.854Z,2.28
2022-09-10T21:40:59.774Z,1.80
2022-09-10T21:44:03.580Z,1.60
2022-09-10T21:47:05.169Z,1.90
2022-09-10T21:50:06.833Z,1.73
2022-09-10T21:53:09.267Z,1.90
2022-09-10T21:56:17.275Z,1.52
2022-09-10T21:59:20.563Z,1.90
2022-09-10T22:02:23.127Z,1.65
2022-09-10T22:05:24.785Z,1.70
2022-09-10T22:08:26.278Z,1.50
2022-09-10T22:11:34.066Z,1.73
2022-09-10T22:14:35.561Z,1.60
2022-09-10T22:17:37.050Z,1.50
2022-09-10T22:20:38.576Z,1.90
2022-09-10T22:23:40.125Z,1.70
2022-09-10T22:26:44.309Z,1.60
2022-09-10T22:29:45.794Z,1.50
2022-09-10T22:32:47.238Z,1.80
2022-09-10T22:35:49.044Z,1.73
2022-09-10T22:38:56.151Z,1.70
2022-09-10T22:41:57.807Z,1.77
2022-09-10T22:45:00.783Z,1.67
2022-09-10T22:48:02.451Z,1.60
2022-09-10T22:51:08.742Z,1.60
2022-09-10T22:54:10.878Z,1.67
2022-09-10T22:57:12.390Z,1.80
2022-09-10T23:00:14.565Z,1.80
2022-09-10T23:03:16.211Z,1.80
2022-09-10T23:06:22.953Z,1.58
2022-09-10T23:09:24.544Z,1.50
2022-09-10T23:12:26.008Z,1.58
2022-09-10T23:15:31.217Z,1.70
2022-09-10T23:18:33.008Z,1.50
2022-09-10T23:21:35.408Z,1.50
2022-09-10T23:24:36.864Z,1.55
2022-09-10T23:27:38.720Z,1.52
2022-09-10T23:30:40.191Z,1.50
2022-09-10T23:33:48.311Z,1.40
2022-09-10T23:36:51.305Z,1.38
2022-09-10T23:39:52.862Z,1.50
2022-09-10T23:42:54.592Z,1.60
2022-09-10T23:45:56.089Z,1.27
2022-09-10T23:48:57.663Z,1.23
2022-09-10T23:51:59.216Z,1.40
2022-09-10T23:55:01.138Z,1.50
2022-09-10T23:58:03.847Z,1.73
